LROP/OTP METAR and TAF weather

Enter ICAO airport designator
Station Type Date Time Source
LROP METAR 2022/05/24 12:30 UTC NOAA

LROP 241230Z 09008KT 060V130 9999 FEW050TCU 23/08 Q1011 NOSIG


Station Type Date Time Source
LROP Decoded METAR 2022/05/24 12:30 UTC NOAA

Bucuresti Otopeni, Romania (LROP) 44-33N 026-06E 95M
May 24, 2022 - 08:30 AM EDT / 2022.05.24 1230 UTC
Wind: from the E (090 degrees) at 9 MPH (8 KT) (direction variable):0
Visibility: greater than 7 mile(s):0
Sky conditions: mostly clear
Weather: Towering cumulus clouds observed
Temperature: 73 F (23 C)
Dew Point: 46 F (8 C)
Relative Humidity: 38%
Pressure (altimeter): 29.85 in. Hg (1011 hPa)
ob: LROP 241230Z 09008KT 060V130 9999 FEW050TCU 23/08 Q1011 NOSIG
cycle: 12

Station Type Date Time Source
LROP TAF 2022/05/24 12:37 UTC NOAA

TAF COR LROP 241109Z 2412/2512 VRB04KT CAVOK PROB40
TEMPO 2412/2415 26010KT 5000 -SHRA SCT040CB
TEMPO 2500/2504 3000 BR

Example: see airport list